Historyczne dane pomiarowe

Dodano dane terminowe – wersja testowa.

Dane z okresu 1951-2019

Wersja bazy: 1.34 [2019-03-16, lista zmian], aktualizacja planowana na 2019-04-15

Dane meteo z obszaru Polski uzyskane na podstawie danych udostępnionych przez Instytut Meteorologii i Gospodarki Wodnej – Państwowy Instytut Badawczy.

 

Wybierz Datę:    

       

TemperaturaWilgotnośćWiatrCiśnienieOpadyŚniegCzas trwania zjawisk
 Stacja t tx tn tng RH VA  wxwx mslp ppp RRR   cm mm wxwxwxwxwxwxwx
1956-10-11 0.8 7.4 -3.3- 83.8- 3.7 1.0---- 0.0------------
1956-10-12 4.6 7.4 -1.1- 76.0- 5.3 2.0---- 0.0------------
1956-10-13 5.6 7.4 1.8- 80.5- 8.0 2.7---- 1.2------------
1956-10-14 2.9 9.9 -1.8- 85.8- 4.0 3.0---- 1.5------------
1956-10-15 -0.6 9.7 -6.0- 83.0- 1.3 1.0---- 0.0------------
1956-10-16 0.4 9.1 -5.8- 84.8- 1.3 1.0---- 0.0------------
1956-10-17 1.5 13.4 -6.2- 81.8- 0.0 0.0---- 0.0------------
1956-10-18 7.4 12.2 -1.8- 67.0- 4.7 2.0---- 0.0------------
1956-10-19 8.6 11.5 2.0- 74.0- 8.0 1.0---- 0.0------------
1956-10-20 10.0 11.6 7.7- 86.0- 8.0 1.3---- 1.2------------
1956-10-21 10.0 14.0 7.1- 80.3- 6.3 0.0---- 0.0------------
1956-10-22 10.6 16.5 4.6- 88.3- 3.0 1.0---- 0.0------------
1956-10-23 8.9 16.2 2.7- 93.5- 4.0 1.0---- 0.0------------
1956-10-24 6.3 12.2 2.9- 90.5- 5.3 0.7---- 0.0------------
1956-10-25 10.1 15.8 2.9- 80.3- 2.7 2.0---- 0.0------------
1956-10-26 7.8 15.2 3.6- 81.8- 3.0 1.7---- 0.0------------
1956-10-27 8.1 12.0 -0.4- 90.8- 7.0 1.0---- 0.0------------
1956-10-28 9.6 15.5 7.1- 84.3- 4.7 1.0---- 4.0------------
1956-10-29 4.4 7.7 2.4- 93.3- 8.0 2.0---- 1.9------------
1956-10-30 4.2 5.9 2.4- 90.3- 8.0 0.0---- 0.0------------
1956-10-31 -5.4 4.9 -7.8- 90.3- 4.0 2.7---- 0.0------------
1956-11-01 -4.2 5.7-13.1- 86.8- 0.0 0.3---- 0.0------------
1956-11-02 0.5 5.9 -6.8- 88.8- 6.7 1.0---- 0.0------------
1956-11-03 -1.3 1.4 -2.6- 93.8- 8.0 2.3---- 0.0------------
1956-11-04 -1.2 3.3 -9.3- 93.0- 2.0 1.0---- 2.1------------
1956-11-05 -1.3 1.3 -7.6- 95.8- 6.0 3.0---- 5.0------------
1956-11-06 -0.6 1.4 -1.8- 95.5- 7.7 2.0---- 3.0-- 1---------
1956-11-07 -2.4 -0.3 -3.6- 93.8- 8.0 4.0---- 0.0-- 1---------
1956-11-08 -8.6 -3.1-11.1- 82.8- 6.7 2.3---- 0.0-- 1---------
1956-11-09-11.8 -2.7-15.9- 90.5- 3.7 1.0---- 0.0-- 1---------
144.4 ms

 

Źródłem pochodzenia danych jest Instytut Meteorologii i Gospodarki Wodnej – Państwowy Instytut Badawczy. Dane Instytutu Meteorologii i Gospodarki Wodnej – Państwowego Instytutu Badawczego zostały przetworzone.

Dane źródłowe można odnaleźć na stronie https://dane.imgw.pl